METAR Data
IDs: Format: Raw Decoded Include TAF

Data at: 0236 UTC 18 Jun 2019

PADL 180156Z 18008KT 10SM BKN050 BKN120 16/12 A2965 RMK AO2 SLP046 T01610117
PADL 180056Z 21006KT 10SM BKN045 OVC120 17/11 A2966 RMK AO2 SLP049 T01670106
PADL 172356Z 00000KT 10SM BKN055 OVC120 15/12 A2967 RMK AO2 RAE45 SLP052 P0000 60001 T01500117 10156 20117 58003
PADL 172256Z 00000KT 10SM -RA FEW017 BKN050 OVC070 15/12 A2967 RMK AO2 RAE13B35 SLP054 P0000 T01500117
PADL 172156Z 19004KT 10SM -RA BKN045 OVC090 14/12 A2968 RMK AO2 RAB05 SLP055 P0001 T01440122
PADL 172056Z 18007KT 10SM FEW030 OVC070 14/11 A2968 RMK AO2 RAE40 SLP055 P0000 60000 T01390111 58005
PADL 171956Z 19005KT 10SM -RA SCT045 OVC120 14/09 A2968 RMK AO2 RAB30 SLP057 P0000 T01390094
PADL 171856Z 21005KT 10SM BKN070 OVC120 13/09 A2969 RMK AO2 RAE21 SLP060 P0000 T01330089
PADL 171756Z 19005KT 10SM -RA SCT080 OVC150 12/08 A2969 RMK AO2 RAB48 SLP059 P0000 60000 T01170083 10117 20083 58002
PADL 171656Z 00000KT 10SM BKN080 OVC120 11/08 A2969 RMK AO2 SLP060 T01110078
PADL 171556Z 00000KT 10SM BKN080 OVC120 10/08 A2970 RMK AO2 RAB24E41 SLP062 P0000 T01000078
PADL 171356Z AUTO 00000KT 10SM BKN100 09/06 A2971 RMK AO2 SLP066 T00890061
PADL 171256Z AUTO 03004KT 10SM OVC070 10/07 A2972 RMK AO2 SLP069 T01000067
PADL 171056Z AUTO 05005KT 10SM BKN095 10/06 A2973 RMK AO2 SLP071 T01000061
PADL 170956Z AUTO 05005KT 10SM FEW075 SCT095 11/07 A2973 RMK AO2 SLP073 T01060067
PADL 170856Z AUTO 05007KT 10SM BKN070 OVC090 12/07 A2973 RMK AO2 SLP071 T01220067 401890094 51011
PADL 170756Z AUTO 06006KT 10SM SCT090 13/07 A2972 RMK AO2 SLP069 T01280067
PADL 170656Z AUTO 05006KT 10SM BKN075 14/07 A2971 RMK AO2 SLP066 T01390072
PADL 170556Z AUTO 00000KT 10SM BKN080 16/10 A2969 RMK AO2 SLP060 60002 T01560100 10189 20150 51004
PADL 170456Z 18005KT 10SM CLR 16/09 A2969 RMK AO2 SLP059 T01610094
PADL 170356Z 10011G17KT 10SM CLR 18/08 A2969 RMK AO2 SLP058 T01780083
PADL 170256Z 08009G17KT 10SM SCT075 19/06 A2968 RMK AO2 SLP056 60002 T01890061 56005
PADL 170156Z 06012G16KT 10SM FEW050 BKN080 OVC100 18/10 A2968 RMK AO2 RAB14E52 SLP056 P0001 T01780100
PADL 170056Z 03010G16KT 10SM SCT042 BKN090 17/09 A2969 RMK AO2 RAB06E45 SLP058 P0001 T01720089
PADL 162356Z 01007G16KT 10SM BKN040 BKN120 17/09 A2970 RMK AO2 SLP061 60000 T01720094 10183 20122 58012
PADL 162256Z 08010KT 10SM BKN045 OVC110 17/09 A2971 RMK AO2 SLP067 T01720089
PADL 162156Z 05010KT 10SM SCT030 BKN060 16/11 A2972 RMK AO2 RAB42E54 SLP070 P0000 T01610106
PADL 162056Z 06011G20KT 10SM BKN030 OVC060 16/09 A2973 RMK AO2 SLP073 60000 T01560089 58005
PADL 161956Z 05008G15KT 10SM BKN030 OVC120 14/09 A2973 RMK AO2 RAB34E46 SLP074 P0000 T01440094
PADL 161856Z 04008KT 10SM SCT025 BKN045 OVC120 14/09 A2974 RMK AO2 SLP077 T01390094
PADL 161756Z 01008KT 10SM FEW020 BKN065 OVC120 12/09 A2974 RMK AO2 SLP078 60000 T01220094 10128 20094 50000
PADL 161656Z 01008KT 10SM SCT017 BKN080 OVC120 11/09 A2975 RMK AO2 RAB09E24 SLP079 P0000 T01110094
PADL 161556Z 36008KT 10SM FEW016 BKN080 OVC120 10/09 A2975 RMK AO2 SLP078 T01000089
PADL 161456Z AUTO 01008KT 10SM FEW033 BKN080 OVC110 09/08 A2974 RMK AO2 SLP078 60000 T00940083 58002